sensor_id;sensor_type;location;lat;lon;timestamp;P1;durP1;ratioP1;P2;durP2;ratioP2
35114;SDS011;21292;52.416;13.046;2023-08-20T00:03:11;17.42;;;15.63;;
35114;SDS011;21292;52.416;13.046;2023-08-20T00:05:41;18.42;;;16.25;;
35114;SDS011;21292;52.416;13.046;2023-08-20T00:08:10;17.83;;;15.93;;
35114;SDS011;21292;52.416;13.046;2023-08-20T00:10:39;17.33;;;15.18;;
35114;SDS011;21292;52.416;13.046;2023-08-20T00:13:07;17.60;;;15.55;;
35114;SDS011;21292;52.416;13.046;2023-08-20T00:15:38;21.70;;;16.70;;
35114;SDS011;21292;52.416;13.046;2023-08-20T00:18:09;18.23;;;15.75;;
35114;SDS011;21292;52.416;13.046;2023-08-20T00:20:38;19.90;;;15.45;;
35114;SDS011;21292;52.416;13.046;2023-08-20T00:23:08;17.45;;;15.65;;
35114;SDS011;21292;52.416;13.046;2023-08-20T00:25:37;17.38;;;15.25;;
35114;SDS011;21292;52.416;13.046;2023-08-20T00:28:07;23.92;;;15.27;;
35114;SDS011;21292;52.416;13.046;2023-08-20T00:30:39;16.48;;;14.80;;
35114;SDS011;21292;52.416;13.046;2023-08-20T00:33:07;21.20;;;15.02;;
35114;SDS011;21292;52.416;13.046;2023-08-20T00:35:37;21.83;;;14.85;;
35114;SDS011;21292;52.416;13.046;2023-08-20T00:38:06;16.60;;;14.50;;
35114;SDS011;21292;52.416;13.046;2023-08-20T00:40:34;18.17;;;14.60;;
35114;SDS011;21292;52.416;13.046;2023-08-20T00:43:03;17.85;;;14.77;;
35114;SDS011;21292;52.416;13.046;2023-08-20T00:45:32;18.08;;;14.55;;
35114;SDS011;21292;52.416;13.046;2023-08-20T00:48:03;19.50;;;15.48;;
35114;SDS011;21292;52.416;13.046;2023-08-20T00:50:32;20.38;;;14.05;;
35114;SDS011;21292;52.416;13.046;2023-08-20T00:53:02;42.35;;;14.52;;
35114;SDS011;21292;52.416;13.046;2023-08-20T00:55:31;16.67;;;13.95;;
35114;SDS011;21292;52.416;13.046;2023-08-20T00:58:01;17.52;;;13.82;;
35114;SDS011;21292;52.416;13.046;2023-08-20T01:00:30;19.20;;;14.10;;
35114;SDS011;21292;52.416;13.046;2023-08-20T01:02:59;17.25;;;14.02;;
35114;SDS011;21292;52.416;13.046;2023-08-20T01:05:35;18.58;;;13.68;;
35114;SDS011;21292;52.416;13.046;2023-08-20T01:08:13;15.73;;;13.65;;
35114;SDS011;21292;52.416;13.046;2023-08-20T01:10:52;21.35;;;14.68;;
35114;SDS011;21292;52.416;13.046;2023-08-20T01:13:24;17.90;;;13.93;;
35114;SDS011;21292;52.416;13.046;2023-08-20T01:15:53;15.93;;;13.35;;
35114;SDS011;21292;52.416;13.046;2023-08-20T01:18:22;19.15;;;13.98;;
35114;SDS011;21292;52.416;13.046;2023-08-20T01:20:57;15.05;;;13.50;;
35114;SDS011;21292;52.416;13.046;2023-08-20T01:23:42;16.58;;;13.20;;
35114;SDS011;21292;52.416;13.046;2023-08-20T01:26:35;19.45;;;12.73;;
35114;SDS011;21292;52.416;13.046;2023-08-20T01:29:21;14.52;;;12.82;;
35114;SDS011;21292;52.416;13.046;2023-08-20T01:31:50;16.02;;;12.95;;
35114;SDS011;21292;52.416;13.046;2023-08-20T01:34:21;17.15;;;11.82;;
35114;SDS011;21292;52.416;13.046;2023-08-20T01:36:50;14.30;;;11.80;;
35114;SDS011;21292;52.416;13.046;2023-08-20T01:39:19;15.48;;;12.23;;
35114;SDS011;21292;52.416;13.046;2023-08-20T01:41:47;15.48;;;12.15;;
35114;SDS011;21292;52.416;13.046;2023-08-20T01:44:16;14.68;;;12.48;;
35114;SDS011;21292;52.416;13.046;2023-08-20T01:46:47;12.45;;;11.15;;
35114;SDS011;21292;52.416;13.046;2023-08-20T01:49:16;14.63;;;12.10;;
35114;SDS011;21292;52.416;13.046;2023-08-20T01:51:47;12.03;;;10.87;;
35114;SDS011;21292;52.416;13.046;2023-08-20T01:54:16;13.60;;;11.85;;
35114;SDS011;21292;52.416;13.046;2023-08-20T01:56:45;14.30;;;12.20;;
35114;SDS011;21292;52.416;13.046;2023-08-20T01:59:13;15.35;;;11.93;;
35114;SDS011;21292;52.416;13.046;2023-08-20T02:01:41;19.33;;;12.15;;
35114;SDS011;21292;52.416;13.046;2023-08-20T02:04:12;18.35;;;12.30;;
35114;SDS011;21292;52.416;13.046;2023-08-20T02:06:40;15.65;;;12.13;;
35114;SDS011;21292;52.416;13.046;2023-08-20T02:09:09;14.98;;;12.50;;
35114;SDS011;21292;52.416;13.046;2023-08-20T02:11:37;17.33;;;12.20;;
35114;SDS011;21292;52.416;13.046;2023-08-20T02:14:06;16.00;;;12.40;;
35114;SDS011;21292;52.416;13.046;2023-08-20T02:16:34;17.10;;;13.10;;
35114;SDS011;21292;52.416;13.046;2023-08-20T02:19:04;21.15;;;13.25;;
35114;SDS011;21292;52.416;13.046;2023-08-20T02:21:35;16.75;;;12.68;;
35114;SDS011;21292;52.416;13.046;2023-08-20T02:24:06;17.00;;;13.10;;
35114;SDS011;21292;52.416;13.046;2023-08-20T02:26:36;13.98;;;12.00;;
35114;SDS011;21292;52.416;13.046;2023-08-20T02:29:04;15.75;;;13.10;;
35114;SDS011;21292;52.416;13.046;2023-08-20T02:31:33;18.08;;;13.27;;
35114;SDS011;21292;52.416;13.046;2023-08-20T02:34:02;16.50;;;12.88;;
35114;SDS011;21292;52.416;13.046;2023-08-20T02:36:30;19.35;;;13.93;;
35114;SDS011;21292;52.416;13.046;2023-08-20T02:39:00;19.10;;;14.20;;
35114;SDS011;21292;52.416;13.046;2023-08-20T02:41:30;21.23;;;14.32;;
35114;SDS011;21292;52.416;13.046;2023-08-20T02:44:01;15.48;;;13.40;;
35114;SDS011;21292;52.416;13.046;2023-08-20T02:46:30;17.40;;;13.70;;
35114;SDS011;21292;52.416;13.046;2023-08-20T02:48:58;17.15;;;13.45;;
35114;SDS011;21292;52.416;13.046;2023-08-20T02:51:27;17.23;;;13.60;;
35114;SDS011;21292;52.416;13.046;2023-08-20T02:53:55;17.20;;;14.60;;
35114;SDS011;21292;52.416;13.046;2023-08-20T02:56:25;16.05;;;14.30;;
35114;SDS011;21292;52.416;13.046;2023-08-20T02:58:58;20.60;;;14.93;;
35114;SDS011;21292;52.416;13.046;2023-08-20T03:01:26;18.42;;;14.85;;
35114;SDS011;21292;52.416;13.046;2023-08-20T03:03:55;17.70;;;13.85;;
35114;SDS011;21292;52.416;13.046;2023-08-20T03:06:23;19.42;;;15.68;;
35114;SDS011;21292;52.416;13.046;2023-08-20T03:08:52;19.27;;;15.18;;
35114;SDS011;21292;52.416;13.046;2023-08-20T03:11:20;18.17;;;14.77;;
35114;SDS011;21292;52.416;13.046;2023-08-20T03:13:49;16.80;;;14.60;;
35114;SDS011;21292;52.416;13.046;2023-08-20T03:16:18;19.75;;;15.65;;
35114;SDS011;21292;52.416;13.046;2023-08-20T03:18:47;22.73;;;15.13;;
35114;SDS011;21292;52.416;13.046;2023-08-20T03:21:17;21.52;;;16.42;;
35114;SDS011;21292;52.416;13.046;2023-08-20T03:23:45;22.65;;;15.35;;
35114;SDS011;21292;52.416;13.046;2023-08-20T03:26:17;22.93;;;15.40;;
35114;SDS011;21292;52.416;13.046;2023-08-20T03:28:45;21.88;;;17.25;;
35114;SDS011;21292;52.416;13.046;2023-08-20T03:31:15;20.58;;;17.05;;
35114;SDS011;21292;52.416;13.046;2023-08-20T03:33:44;19.13;;;17.08;;
35114;SDS011;21292;52.416;13.046;2023-08-20T03:36:12;23.20;;;18.52;;
35114;SDS011;21292;52.416;13.046;2023-08-20T03:38:41;24.83;;;18.00;;
35114;SDS011;21292;52.416;13.046;2023-08-20T03:41:09;25.15;;;19.63;;
35114;SDS011;21292;52.416;13.046;2023-08-20T03:43:38;29.70;;;20.65;;
35114;SDS011;21292;52.416;13.046;2023-08-20T03:46:07;23.58;;;19.63;;
35114;SDS011;21292;52.416;13.046;2023-08-20T03:48:37;28.08;;;20.02;;
35114;SDS011;21292;52.416;13.046;2023-08-20T03:51:07;29.55;;;20.70;;
35114;SDS011;21292;52.416;13.046;2023-08-20T03:53:35;24.48;;;20.33;;
35114;SDS011;21292;52.416;13.046;2023-08-20T03:56:04;27.50;;;20.92;;
35114;SDS011;21292;52.416;13.046;2023-08-20T03:58:34;29.27;;;21.45;;
35114;SDS011;21292;52.416;13.046;2023-08-20T04:01:03;28.58;;;20.98;;
35114;SDS011;21292;52.416;13.046;2023-08-20T04:03:33;30.70;;;21.65;;
35114;SDS011;21292;52.416;13.046;2023-08-20T04:06:04;25.77;;;20.30;;
35114;SDS011;21292;52.416;13.046;2023-08-20T04:08:35;27.58;;;20.33;;
35114;SDS011;21292;52.416;13.046;2023-08-20T04:11:03;30.10;;;21.38;;
35114;SDS011;21292;52.416;13.046;2023-08-20T04:13:33;26.45;;;20.40;;
35114;SDS011;21292;52.416;13.046;2023-08-20T04:16:03;28.60;;;21.63;;
35114;SDS011;21292;52.416;13.046;2023-08-20T04:18:31;25.67;;;21.73;;
35114;SDS011;21292;52.416;13.046;2023-08-20T04:20:59;26.30;;;21.17;;
35114;SDS011;21292;52.416;13.046;2023-08-20T04:23:30;26.33;;;20.15;;
35114;SDS011;21292;52.416;13.046;2023-08-20T04:25:59;29.25;;;20.88;;
35114;SDS011;21292;52.416;13.046;2023-08-20T04:28:28;31.20;;;21.52;;
35114;SDS011;21292;52.416;13.046;2023-08-20T04:30:56;23.10;;;18.52;;
35114;SDS011;21292;52.416;13.046;2023-08-20T04:33:25;29.27;;;19.52;;
35114;SDS011;21292;52.416;13.046;2023-08-20T04:35:55;25.30;;;18.92;;
35114;SDS011;21292;52.416;13.046;2023-08-20T04:38:23;26.40;;;18.42;;
35114;SDS011;21292;52.416;13.046;2023-08-20T04:40:53;21.27;;;17.58;;
35114;SDS011;21292;52.416;13.046;2023-08-20T04:43:22;20.90;;;16.15;;
35114;SDS011;21292;52.416;13.046;2023-08-20T04:45:52;24.02;;;17.15;;
35114;SDS011;21292;52.416;13.046;2023-08-20T04:48:20;24.17;;;17.25;;
35114;SDS011;21292;52.416;13.046;2023-08-20T04:50:49;20.60;;;16.45;;
35114;SDS011;21292;52.416;13.046;2023-08-20T04:53:17;18.30;;;14.80;;
35114;SDS011;21292;52.416;13.046;2023-08-20T04:55:46;18.38;;;13.70;;
35114;SDS011;21292;52.416;13.046;2023-08-20T04:58:16;18.35;;;13.98;;
35114;SDS011;21292;52.416;13.046;2023-08-20T05:00:44;19.15;;;13.52;;
35114;SDS011;21292;52.416;13.046;2023-08-20T05:03:12;14.52;;;12.43;;
35114;SDS011;21292;52.416;13.046;2023-08-20T05:05:40;17.55;;;13.10;;
35114;SDS011;21292;52.416;13.046;2023-08-20T05:08:09;19.50;;;11.80;;
35114;SDS011;21292;52.416;13.046;2023-08-20T05:10:40;150.38;;;134.40;;
35114;SDS011;21292;52.416;13.046;2023-08-20T05:13:09;41.30;;;36.78;;
35114;SDS011;21292;52.416;13.046;2023-08-20T05:15:39;13.55;;;11.30;;
35114;SDS011;21292;52.416;13.046;2023-08-20T05:18:07;12.98;;;10.23;;
35114;SDS011;21292;52.416;13.046;2023-08-20T05:20:36;13.77;;;10.00;;
35114;SDS011;21292;52.416;13.046;2023-08-20T05:23:05;12.82;;;10.00;;
35114;SDS011;21292;52.416;13.046;2023-08-20T05:25:33;12.10;;;10.40;;
35114;SDS011;21292;52.416;13.046;2023-08-20T05:28:01;13.38;;;9.52;;
35114;SDS011;21292;52.416;13.046;2023-08-20T05:30:30;12.48;;;8.60;;
35114;SDS011;21292;52.416;13.046;2023-08-20T05:33:00;9.82;;;7.25;;
35114;SDS011;21292;52.416;13.046;2023-08-20T05:35:28;9.55;;;6.25;;
35114;SDS011;21292;52.416;13.046;2023-08-20T05:37:57;9.15;;;6.68;;
35114;SDS011;21292;52.416;13.046;2023-08-20T05:40:26;8.65;;;5.53;;
35114;SDS011;21292;52.416;13.046;2023-08-20T05:42:54;9.73;;;5.35;;
35114;SDS011;21292;52.416;13.046;2023-08-20T05:45:23;6.50;;;5.22;;
35114;SDS011;21292;52.416;13.046;2023-08-20T05:47:52;8.05;;;4.40;;
35114;SDS011;21292;52.416;13.046;2023-08-20T05:50:22;5.93;;;4.22;;
35114;SDS011;21292;52.416;13.046;2023-08-20T05:52:50;5.28;;;4.38;;
35114;SDS011;21292;52.416;13.046;2023-08-20T05:55:19;5.90;;;4.35;;
35114;SDS011;21292;52.416;13.046;2023-08-20T05:57:49;4.85;;;4.35;;
35114;SDS011;21292;52.416;13.046;2023-08-20T06:00:18;4.35;;;3.63;;
35114;SDS011;21292;52.416;13.046;2023-08-20T06:02:46;5.80;;;3.90;;
35114;SDS011;21292;52.416;13.046;2023-08-20T06:05:15;5.32;;;3.42;;
35114;SDS011;21292;52.416;13.046;2023-08-20T06:07:45;5.18;;;3.70;;
35114;SDS011;21292;52.416;13.046;2023-08-20T06:10:13;5.50;;;3.25;;
35114;SDS011;21292;52.416;13.046;2023-08-20T06:12:42;9.90;;;8.98;;
35114;SDS011;21292;52.416;13.046;2023-08-20T06:15:10;3.20;;;2.90;;
35114;SDS011;21292;52.416;13.046;2023-08-20T06:17:39;7.82;;;2.70;;
35114;SDS011;21292;52.416;13.046;2023-08-20T06:20:08;6.18;;;3.33;;
35114;SDS011;21292;52.416;13.046;2023-08-20T06:22:38;2.60;;;2.28;;
35114;SDS011;21292;52.416;13.046;2023-08-20T06:25:08;3.80;;;2.40;;
35114;SDS011;21292;52.416;13.046;2023-08-20T06:27:37;2.22;;;2.00;;
35114;SDS011;21292;52.416;13.046;2023-08-20T06:30:06;4.00;;;2.20;;
35114;SDS011;21292;52.416;13.046;2023-08-20T06:32:35;2.80;;;2.20;;
35114;SDS011;21292;52.416;13.046;2023-08-20T06:35:04;4.78;;;2.17;;
35114;SDS011;21292;52.416;13.046;2023-08-20T06:37:32;3.17;;;1.85;;
35114;SDS011;21292;52.416;13.046;2023-08-20T06:40:01;4.07;;;2.53;;
35114;SDS011;21292;52.416;13.046;2023-08-20T06:42:31;5.05;;;2.20;;
35114;SDS011;21292;52.416;13.046;2023-08-20T06:44:59;7.45;;;2.40;;
35114;SDS011;21292;52.416;13.046;2023-08-20T06:47:28;4.75;;;2.10;;
35114;SDS011;21292;52.416;13.046;2023-08-20T06:49:57;3.22;;;2.15;;
35114;SDS011;21292;52.416;13.046;2023-08-20T06:52:25;2.53;;;1.98;;
35114;SDS011;21292;52.416;13.046;2023-08-20T06:54:53;3.75;;;2.15;;
35114;SDS011;21292;52.416;13.046;2023-08-20T06:57:21;2.30;;;2.10;;
35114;SDS011;21292;52.416;13.046;2023-08-20T06:59:51;13.65;;;12.07;;
35114;SDS011;21292;52.416;13.046;2023-08-20T07:02:20;6.05;;;5.10;;
35114;SDS011;21292;52.416;13.046;2023-08-20T07:04:48;5.22;;;2.33;;
35114;SDS011;21292;52.416;13.046;2023-08-20T07:07:16;5.65;;;2.10;;
35114;SDS011;21292;52.416;13.046;2023-08-20T07:09:44;7.43;;;1.92;;
35114;SDS011;21292;52.416;13.046;2023-08-20T07:12:12;4.03;;;1.85;;
35114;SDS011;21292;52.416;13.046;2023-08-20T07:14:41;5.00;;;2.03;;
35114;SDS011;21292;52.416;13.046;2023-08-20T07:17:13;4.95;;;2.13;;
35114;SDS011;21292;52.416;13.046;2023-08-20T07:19:42;7.35;;;2.25;;
35114;SDS011;21292;52.416;13.046;2023-08-20T07:22:11;3.05;;;1.80;;
35114;SDS011;21292;52.416;13.046;2023-08-20T07:24:39;5.20;;;1.80;;
35114;SDS011;21292;52.416;13.046;2023-08-20T07:27:08;4.53;;;1.80;;
35114;SDS011;21292;52.416;13.046;2023-08-20T07:29:40;3.10;;;2.03;;
35114;SDS011;21292;52.416;13.046;2023-08-20T07:32:09;4.88;;;2.17;;
35114;SDS011;21292;52.416;13.046;2023-08-20T07:34:40;1.80;;;1.65;;
35114;SDS011;21292;52.416;13.046;2023-08-20T07:37:09;3.45;;;2.30;;
35114;SDS011;21292;52.416;13.046;2023-08-20T07:39:37;5.90;;;2.20;;
35114;SDS011;21292;52.416;13.046;2023-08-20T07:42:07;2.88;;;2.10;;
35114;SDS011;21292;52.416;13.046;2023-08-20T07:44:39;2.65;;;2.08;;
35114;SDS011;21292;52.416;13.046;2023-08-20T07:47:08;2.63;;;1.83;;
35114;SDS011;21292;52.416;13.046;2023-08-20T07:49:36;3.03;;;1.83;;
35114;SDS011;21292;52.416;13.046;2023-08-20T07:52:07;2.17;;;1.95;;
35114;SDS011;21292;52.416;13.046;2023-08-20T07:54:35;2.40;;;2.08;;
35114;SDS011;21292;52.416;13.046;2023-08-20T07:57:04;5.45;;;1.85;;
35114;SDS011;21292;52.416;13.046;2023-08-20T07:59:33;4.78;;;2.22;;
35114;SDS011;21292;52.416;13.046;2023-08-20T08:02:02;2.97;;;2.20;;
35114;SDS011;21292;52.416;13.046;2023-08-20T08:04:30;2.83;;;1.80;;
35114;SDS011;21292;52.416;13.046;2023-08-20T08:06:58;2.55;;;1.83;;
35114;SDS011;21292;52.416;13.046;2023-08-20T08:09:29;2.83;;;1.60;;
35114;SDS011;21292;52.416;13.046;2023-08-20T08:12:00;2.75;;;1.70;;
35114;SDS011;21292;52.416;13.046;2023-08-20T08:14:29;2.08;;;1.73;;
35114;SDS011;21292;52.416;13.046;2023-08-20T08:16:57;4.40;;;2.35;;
35114;SDS011;21292;52.416;13.046;2023-08-20T08:19:26;3.45;;;2.15;;
35114;SDS011;21292;52.416;13.046;2023-08-20T08:21:55;4.15;;;1.95;;
35114;SDS011;21292;52.416;13.046;2023-08-20T08:24:24;5.10;;;1.90;;
35114;SDS011;21292;52.416;13.046;2023-08-20T08:26:54;3.90;;;2.10;;
35114;SDS011;21292;52.416;13.046;2023-08-20T08:29:22;6.07;;;1.80;;
35114;SDS011;21292;52.416;13.046;2023-08-20T08:31:51;6.43;;;2.10;;
35114;SDS011;21292;52.416;13.046;2023-08-20T08:34:22;3.15;;;1.83;;
35114;SDS011;21292;52.416;13.046;2023-08-20T08:36:54;2.88;;;1.88;;
35114;SDS011;21292;52.416;13.046;2023-08-20T08:39:23;2.67;;;1.88;;
35114;SDS011;21292;52.416;13.046;2023-08-20T08:41:54;3.05;;;2.00;;
35114;SDS011;21292;52.416;13.046;2023-08-20T08:44:31;2.92;;;1.95;;
35114;SDS011;21292;52.416;13.046;2023-08-20T08:46:59;1.67;;;1.58;;
35114;SDS011;21292;52.416;13.046;2023-08-20T08:49:29;2.33;;;1.70;;
35114;SDS011;21292;52.416;13.046;2023-08-20T08:52:00;2.80;;;1.77;;
35114;SDS011;21292;52.416;13.046;2023-08-20T08:54:29;2.90;;;1.52;;
35114;SDS011;21292;52.416;13.046;2023-08-20T08:56:59;7.13;;;1.48;;
35114;SDS011;21292;52.416;13.046;2023-08-20T08:59:28;3.30;;;1.90;;
35114;SDS011;21292;52.416;13.046;2023-08-20T09:01:57;1.88;;;1.77;;
35114;SDS011;21292;52.416;13.046;2023-08-20T09:04:27;3.55;;;1.77;;
35114;SDS011;21292;52.416;13.046;2023-08-20T09:06:56;2.97;;;1.70;;
35114;SDS011;21292;52.416;13.046;2023-08-20T09:09:26;2.65;;;1.60;;
35114;SDS011;21292;52.416;13.046;2023-08-20T09:11:57;4.40;;;1.75;;
35114;SDS011;21292;52.416;13.046;2023-08-20T09:14:28;2.35;;;1.50;;
35114;SDS011;21292;52.416;13.046;2023-08-20T09:16:57;4.22;;;1.83;;
35114;SDS011;21292;52.416;13.046;2023-08-20T09:19:27;2.22;;;1.50;;
35114;SDS011;21292;52.416;13.046;2023-08-20T09:21:59;2.13;;;1.92;;
35114;SDS011;21292;52.416;13.046;2023-08-20T09:24:32;1.88;;;1.50;;
35114;SDS011;21292;52.416;13.046;2023-08-20T09:27:04;3.97;;;1.55;;
35114;SDS011;21292;52.416;13.046;2023-08-20T09:29:33;4.53;;;1.80;;
35114;SDS011;21292;52.416;13.046;2023-08-20T09:32:02;2.40;;;1.52;;
35114;SDS011;21292;52.416;13.046;2023-08-20T09:34:37;3.50;;;1.83;;
35114;SDS011;21292;52.416;13.046;2023-08-20T09:37:09;1.88;;;1.48;;
35114;SDS011;21292;52.416;13.046;2023-08-20T09:39:38;2.20;;;1.90;;
35114;SDS011;21292;52.416;13.046;2023-08-20T09:42:08;2.67;;;2.00;;
35114;SDS011;21292;52.416;13.046;2023-08-20T09:44:37;2.92;;;1.80;;
35114;SDS011;21292;52.416;13.046;2023-08-20T09:47:07;2.28;;;1.92;;
35114;SDS011;21292;52.416;13.046;2023-08-20T09:49:37;3.63;;;2.22;;
35114;SDS011;21292;52.416;13.046;2023-08-20T09:52:08;4.97;;;2.30;;
35114;SDS011;21292;52.416;13.046;2023-08-20T09:54:50;3.55;;;2.10;;
35114;SDS011;21292;52.416;13.046;2023-08-20T09:57:26;3.45;;;2.13;;
35114;SDS011;21292;52.416;13.046;2023-08-20T09:59:55;3.65;;;2.33;;
35114;SDS011;21292;52.416;13.046;2023-08-20T10:02:25;3.35;;;1.83;;
35114;SDS011;21292;52.416;13.046;2023-08-20T10:04:53;3.03;;;1.50;;
35114;SDS011;21292;52.416;13.046;2023-08-20T10:07:23;2.95;;;2.03;;
35114;SDS011;21292;52.416;13.046;2023-08-20T10:09:52;4.07;;;2.20;;
35114;SDS011;21292;52.416;13.046;2023-08-20T10:12:21;2.80;;;2.10;;
35114;SDS011;21292;52.416;13.046;2023-08-20T10:14:51;4.07;;;2.05;;
35114;SDS011;21292;52.416;13.046;2023-08-20T10:17:23;2.13;;;1.92;;
35114;SDS011;21292;52.416;13.046;2023-08-20T10:19:52;3.72;;;2.25;;
35114;SDS011;21292;52.416;13.046;2023-08-20T10:22:21;3.20;;;1.90;;
35114;SDS011;21292;52.416;13.046;2023-08-20T10:24:51;3.80;;;2.08;;
35114;SDS011;21292;52.416;13.046;2023-08-20T10:27:25;4.75;;;2.58;;
35114;SDS011;21292;52.416;13.046;2023-08-20T10:29:57;4.68;;;2.40;;
35114;SDS011;21292;52.416;13.046;2023-08-20T10:32:45;2.60;;;2.05;;
35114;SDS011;21292;52.416;13.046;2023-08-20T10:35:16;3.40;;;2.10;;
35114;SDS011;21292;52.416;13.046;2023-08-20T10:38:01;2.95;;;2.45;;
35114;SDS011;21292;52.416;13.046;2023-08-20T10:40:49;4.20;;;2.55;;
35114;SDS011;21292;52.416;13.046;2023-08-20T10:43:28;2.65;;;2.10;;
35114;SDS011;21292;52.416;13.046;2023-08-20T10:46:06;2.60;;;2.00;;
35114;SDS011;21292;52.416;13.046;2023-08-20T10:48:38;2.90;;;2.00;;
35114;SDS011;21292;52.416;13.046;2023-08-20T10:51:11;3.97;;;2.00;;
35114;SDS011;21292;52.416;13.046;2023-08-20T10:53:41;4.15;;;1.90;;
35114;SDS011;21292;52.416;13.046;2023-08-20T10:56:11;2.60;;;1.88;;
35114;SDS011;21292;52.416;13.046;2023-08-20T10:58:41;2.72;;;2.15;;
35114;SDS011;21292;52.416;13.046;2023-08-20T11:01:16;3.22;;;2.05;;
35114;SDS011;21292;52.416;13.046;2023-08-20T11:03:47;3.70;;;2.33;;
35114;SDS011;21292;52.416;13.046;2023-08-20T11:06:16;2.10;;;1.90;;
35114;SDS011;21292;52.416;13.046;2023-08-20T11:08:47;2.33;;;1.60;;
35114;SDS011;21292;52.416;13.046;2023-08-20T11:11:17;4.55;;;1.73;;
35114;SDS011;21292;52.416;13.046;2023-08-20T11:13:48;2.95;;;1.90;;
35114;SDS011;21292;52.416;13.046;2023-08-20T11:16:20;1.67;;;1.40;;
35114;SDS011;21292;52.416;13.046;2023-08-20T11:18:51;2.83;;;1.63;;
35114;SDS011;21292;52.416;13.046;2023-08-20T11:21:22;1.77;;;1.58;;
35114;SDS011;21292;52.416;13.046;2023-08-20T11:23:51;2.03;;;1.80;;
35114;SDS011;21292;52.416;13.046;2023-08-20T11:26:21;2.50;;;1.73;;
35114;SDS011;21292;52.416;13.046;2023-08-20T11:28:50;1.90;;;1.70;;
35114;SDS011;21292;52.416;13.046;2023-08-20T11:31:20;3.00;;;1.70;;
35114;SDS011;21292;52.416;13.046;2023-08-20T11:33:49;2.42;;;1.42;;
35114;SDS011;21292;52.416;13.046;2023-08-20T11:36:21;3.78;;;1.65;;
35114;SDS011;21292;52.416;13.046;2023-08-20T11:38:52;2.15;;;1.42;;
35114;SDS011;21292;52.416;13.046;2023-08-20T11:41:25;1.80;;;1.50;;
35114;SDS011;21292;52.416;13.046;2023-08-20T11:43:55;2.67;;;1.75;;
35114;SDS011;21292;52.416;13.046;2023-08-20T11:46:25;2.28;;;1.50;;
35114;SDS011;21292;52.416;13.046;2023-08-20T11:49:03;2.75;;;1.85;;
35114;SDS011;21292;52.416;13.046;2023-08-20T11:51:35;2.00;;;1.45;;
35114;SDS011;21292;52.416;13.046;2023-08-20T11:54:04;2.75;;;1.52;;
35114;SDS011;21292;52.416;13.046;2023-08-20T11:56:42;2.80;;;1.77;;
35114;SDS011;21292;52.416;13.046;2023-08-20T11:59:12;3.70;;;1.20;;
35114;SDS011;21292;52.416;13.046;2023-08-20T12:01:42;2.47;;;1.77;;
35114;SDS011;21292;52.416;13.046;2023-08-20T12:04:19;3.03;;;1.52;;
35114;SDS011;21292;52.416;13.046;2023-08-20T12:07:03;1.85;;;1.60;;
35114;SDS011;21292;52.416;13.046;2023-08-20T12:09:33;2.97;;;1.67;;
35114;SDS011;21292;52.416;13.046;2023-08-20T12:12:04;2.75;;;1.60;;
35114;SDS011;21292;52.416;13.046;2023-08-20T12:17:04;1.85;;;1.75;;
35114;SDS011;21292;52.416;13.046;2023-08-20T12:19:32;1.70;;;1.40;;
35114;SDS011;21292;52.416;13.046;2023-08-20T12:22:01;3.03;;;1.50;;
35114;SDS011;21292;52.416;13.046;2023-08-20T12:24:31;2.40;;;1.25;;
35114;SDS011;21292;52.416;13.046;2023-08-20T12:26:59;2.80;;;1.58;;
35114;SDS011;21292;52.416;13.046;2023-08-20T12:29:28;3.05;;;1.85;;
35114;SDS011;21292;52.416;13.046;2023-08-20T12:32:00;3.63;;;1.83;;
35114;SDS011;21292;52.416;13.046;2023-08-20T12:34:32;3.90;;;1.58;;
35114;SDS011;21292;52.416;13.046;2023-08-20T12:37:02;2.15;;;1.50;;
35114;SDS011;21292;52.416;13.046;2023-08-20T12:39:31;4.78;;;2.15;;
35114;SDS011;21292;52.416;13.046;2023-08-20T12:42:01;3.25;;;1.90;;
35114;SDS011;21292;52.416;13.046;2023-08-20T12:44:31;2.47;;;1.55;;
35114;SDS011;21292;52.416;13.046;2023-08-20T12:46:59;4.00;;;1.80;;
35114;SDS011;21292;52.416;13.046;2023-08-20T12:49:28;2.65;;;2.08;;
35114;SDS011;21292;52.416;13.046;2023-08-20T12:52:03;4.80;;;2.07;;
35114;SDS011;21292;52.416;13.046;2023-08-20T12:54:32;5.45;;;1.92;;
35114;SDS011;21292;52.416;13.046;2023-08-20T12:57:00;4.18;;;1.60;;
35114;SDS011;21292;52.416;13.046;2023-08-20T12:59:29;3.28;;;1.77;;
35114;SDS011;21292;52.416;13.046;2023-08-20T13:01:58;3.08;;;1.80;;
35114;SDS011;21292;52.416;13.046;2023-08-20T13:04:28;4.28;;;2.03;;
35114;SDS011;21292;52.416;13.046;2023-08-20T13:06:57;3.25;;;1.98;;
35114;SDS011;21292;52.416;13.046;2023-08-20T13:09:27;3.83;;;2.17;;
35114;SDS011;21292;52.416;13.046;2023-08-20T13:11:56;2.60;;;1.90;;
35114;SDS011;21292;52.416;13.046;2023-08-20T13:14:24;3.55;;;2.00;;
35114;SDS011;21292;52.416;13.046;2023-08-20T13:16:53;4.20;;;2.08;;
35114;SDS011;21292;52.416;13.046;2023-08-20T13:19:24;4.50;;;2.03;;
35114;SDS011;21292;52.416;13.046;2023-08-20T13:21:52;4.75;;;2.33;;
35114;SDS011;21292;52.416;13.046;2023-08-20T13:24:21;4.15;;;2.00;;
35114;SDS011;21292;52.416;13.046;2023-08-20T13:26:51;5.70;;;2.13;;
35114;SDS011;21292;52.416;13.046;2023-08-20T13:29:19;4.45;;;2.40;;
35114;SDS011;21292;52.416;13.046;2023-08-20T13:31:48;3.70;;;2.15;;
35114;SDS011;21292;52.416;13.046;2023-08-20T13:34:18;4.20;;;2.50;;
35114;SDS011;21292;52.416;13.046;2023-08-20T13:36:47;3.80;;;1.95;;
35114;SDS011;21292;52.416;13.046;2023-08-20T13:39:16;4.60;;;2.47;;
35114;SDS011;21292;52.416;13.046;2023-08-20T13:41:46;3.53;;;1.95;;
35114;SDS011;21292;52.416;13.046;2023-08-20T13:44:20;4.10;;;1.93;;
35114;SDS011;21292;52.416;13.046;2023-08-20T13:46:49;4.80;;;2.42;;
35114;SDS011;21292;52.416;13.046;2023-08-20T13:49:17;4.82;;;2.05;;
35114;SDS011;21292;52.416;13.046;2023-08-20T13:51:45;4.30;;;1.88;;
35114;SDS011;21292;52.416;13.046;2023-08-20T13:54:13;3.40;;;1.77;;
35114;SDS011;21292;52.416;13.046;2023-08-20T13:56:42;4.13;;;1.90;;
35114;SDS011;21292;52.416;13.046;2023-08-20T13:59:10;3.95;;;2.00;;
35114;SDS011;21292;52.416;13.046;2023-08-20T14:01:40;3.25;;;1.98;;
35114;SDS011;21292;52.416;13.046;2023-08-20T14:04:08;5.43;;;2.00;;
35114;SDS011;21292;52.416;13.046;2023-08-20T14:06:36;2.83;;;1.65;;
35114;SDS011;21292;52.416;13.046;2023-08-20T14:09:05;6.72;;;2.00;;
35114;SDS011;21292;52.416;13.046;2023-08-20T14:11:34;4.95;;;2.25;;
35114;SDS011;21292;52.416;13.046;2023-08-20T14:14:05;4.30;;;1.87;;
35114;SDS011;21292;52.416;13.046;2023-08-20T14:16:33;2.50;;;2.00;;
35114;SDS011;21292;52.416;13.046;2023-08-20T14:19:03;3.55;;;2.30;;
35114;SDS011;21292;52.416;13.046;2023-08-20T14:21:32;5.93;;;1.83;;
35114;SDS011;21292;52.416;13.046;2023-08-20T14:24:00;5.35;;;1.98;;
35114;SDS011;21292;52.416;13.046;2023-08-20T14:26:30;3.72;;;1.70;;
35114;SDS011;21292;52.416;13.046;2023-08-20T14:28:58;5.70;;;2.33;;
35114;SDS011;21292;52.416;13.046;2023-08-20T14:31:28;5.32;;;2.40;;
35114;SDS011;21292;52.416;13.046;2023-08-20T14:33:56;1.70;;;1.60;;
35114;SDS011;21292;52.416;13.046;2023-08-20T14:36:28;4.65;;;2.03;;
35114;SDS011;21292;52.416;13.046;2023-08-20T14:38:58;3.72;;;1.73;;
35114;SDS011;21292;52.416;13.046;2023-08-20T14:41:28;3.55;;;2.00;;
35114;SDS011;21292;52.416;13.046;2023-08-20T14:43:56;4.47;;;1.77;;
35114;SDS011;21292;52.416;13.046;2023-08-20T14:46:24;4.28;;;1.90;;